Time;durP1;ratioP1;P1;durP2;ratioP2;P2;SDS_P1;SDS_P2;PMS_P1;PMS_P2;Temp;Humidity;BMP_temperature;BMP_pressure;BME280_temperature;BME280_humidity;BME280_pressure;Samples;Min_cycle;Max_cycle;Signal;HPM_P1;HPM_P2
2022/08/12 00:45:02;;;;;;;0.98;0.88;;;17.10;99.90;;;;;;4992007;28;20027;-77
2022/08/12 00:47:27;;;;;;;1.10;1.08;;;17.10;99.90;;;;;;4989257;28;20539;-76
2022/08/12 00:49:54;;;;;;;2.70;1.17;;;17.10;99.90;;;;;;4996183;28;20097;-76
2022/08/12 00:52:20;;;;;;;3.22;1.00;;;17.00;99.90;;;;;;4992505;28;20489;-76
2022/08/12 00:54:47;;;;;;;1.40;0.98;;;17.00;99.90;;;;;;4994850;28;20014;-77
2022/08/12 00:57:19;;;;;;;2.17;1.15;;;17.00;99.90;;;;;;4990912;28;20065;-76
2022/08/12 01:00:03;;;;;;;0.98;0.73;;;16.90;99.90;;;;;;5000145;28;20685;-76
2022/08/12 01:02:32;;;;;;;4.57;1.45;;;16.90;99.90;;;;;;5003047;28;20041;-76
2022/08/12 01:13:22;;;;;;;1.45;0.90;;;16.80;99.90;;;;;;4998175;28;20033;-76
2022/08/12 01:15:51;;;;;;;1.02;0.93;;;16.80;99.90;;;;;;4994342;28;20038;-76
2022/08/12 01:18:19;;;;;;;0.82;0.82;;;16.80;99.90;;;;;;5000920;28;20022;-75
2022/08/12 01:20:50;;;;;;;2.53;1.35;;;16.80;99.90;;;;;;5003018;28;20030;-75
2022/08/12 01:23:54;;;;;;;4.28;1.63;;;16.70;99.90;;;;;;4991440;28;20025;-75
2022/08/12 01:26:22;;;;;;;1.55;0.90;;;16.60;99.90;;;;;;4978745;28;20038;-76
2022/08/12 01:28:53;;;;;;;0.90;0.80;;;16.60;99.90;;;;;;4994285;28;20481;-76
2022/08/12 01:31:20;;;;;;;1.52;1.10;;;16.50;99.90;;;;;;4997633;28;20030;-75
2022/08/12 01:33:58;;;;;;;1.67;1.23;;;16.50;99.90;;;;;;4999016;28;20031;-75
2022/08/12 01:36:26;;;;;;;1.05;1.00;;;16.50;99.90;;;;;;5003459;28;20431;-76
2022/08/12 01:38:56;;;;;;;1.05;0.95;;;16.40;99.90;;;;;;4995743;28;20018;-76
2022/08/12 01:41:24;;;;;;;2.40;1.13;;;16.40;99.90;;;;;;4995408;28;20378;-75
2022/08/12 01:43:53;;;;;;;3.92;1.30;;;16.30;99.90;;;;;;5002170;28;20045;-75
2022/08/12 01:46:28;;;;;;;1.33;1.00;;;16.30;99.90;;;;;;4999650;28;20029;-76
2022/08/12 01:49:34;;;;;;;1.63;1.08;;;16.30;99.90;;;;;;4998382;28;20493;-75
2022/08/12 01:52:03;;;;;;;1.02;0.80;;;16.30;99.90;;;;;;4992097;28;20087;-75
2022/08/12 01:55:06;;;;;;;1.60;1.25;;;16.30;99.90;;;;;;4999683;28;20029;-76
2022/08/12 01:57:57;;;;;;;1.10;0.88;;;16.30;99.90;;;;;;4996572;28;20045;-76
2022/08/12 02:00:24;;;;;;;1.95;1.65;;;16.30;99.90;;;;;;4995732;28;20065;-75
2022/08/12 02:12:16;;;;;;;1.00;0.82;;;16.20;99.90;;;;;;4994092;28;20104;-75
2022/08/12 02:14:56;;;;;;;1.35;1.20;;;16.10;99.90;;;;;;5002601;28;20498;-75
2022/08/12 02:17:38;;;;;;;3.55;1.13;;;16.10;99.90;;;;;;4997781;28;20512;-76
2022/08/12 02:20:14;;;;;;;1.67;1.23;;;16.00;99.90;;;;;;4989615;28;20022;-76
2022/08/12 02:22:46;;;;;;;3.10;1.48;;;16.00;99.90;;;;;;4997134;28;20440;-76
2022/08/12 02:25:23;;;;;;;1.75;1.33;;;16.00;99.90;;;;;;4995462;28;20065;-77
2022/08/12 02:27:51;;;;;;;2.05;1.17;;;16.00;99.90;;;;;;5003596;28;20547;-76
2022/08/12 02:30:19;;;;;;;1.65;1.20;;;16.00;99.90;;;;;;4999432;28;20157;-76
2022/08/12 02:32:47;;;;;;;1.40;0.73;;;15.90;99.90;;;;;;4996939;28;20061;-75
2022/08/12 02:35:18;;;;;;;1.95;1.20;;;15.90;99.90;;;;;;4997552;28;20087;-76
2022/08/12 02:37:44;;;;;;;0.95;0.90;;;15.80;99.90;;;;;;4997074;28;20143;-76
2022/08/12 02:40:12;;;;;;;3.05;0.93;;;15.80;99.90;;;;;;4998201;28;20084;-77
2022/08/12 02:42:46;;;;;;;1.08;0.95;;;15.80;99.90;;;;;;4991904;28;20519;-76
2022/08/12 02:45:15;;;;;;;1.98;1.20;;;15.80;99.90;;;;;;4994637;28;20507;-76
2022/08/12 02:47:41;;;;;;;1.10;0.90;;;15.80;99.90;;;;;;5001275;28;20025;-76
2022/08/12 02:50:09;;;;;;;1.35;1.05;;;15.80;99.90;;;;;;4999855;28;20124;-76
2022/08/12 02:52:35;;;;;;;1.08;0.98;;;15.80;99.90;;;;;;4995575;28;20465;-75
2022/08/12 02:55:13;;;;;;;1.20;1.10;;;15.80;99.90;;;;;;4990336;28;20026;-75
2022/08/12 02:57:40;;;;;;;2.42;1.20;;;15.80;99.90;;;;;;4996559;28;20048;-75
2022/08/12 03:00:06;;;;;;;2.83;1.15;;;15.70;99.90;;;;;;5000162;28;20026;-75
2022/08/12 03:02:34;;;;;;;0.85;0.82;;;15.70;99.90;;;;;;4996244;28;20528;-76
2022/08/12 03:05:02;;;;;;;1.27;1.17;;;15.60;99.90;;;;;;4993772;28;20029;-75
2022/08/12 03:07:36;;;;;;;1.00;0.90;;;15.60;99.90;;;;;;4989270;28;20045;-75
2022/08/12 03:10:08;;;;;;;1.20;1.10;;;15.60;99.90;;;;;;4996599;28;20064;-75
2022/08/12 03:12:36;;;;;;;0.98;0.73;;;15.50;99.90;;;;;;4995936;28;20132;-75
2022/08/12 03:15:05;;;;;;;1.10;1.00;;;15.50;99.90;;;;;;4995694;28;20393;-75
2022/08/12 03:17:43;;;;;;;1.13;1.00;;;15.50;99.90;;;;;;4996095;28;20037;-75
2022/08/12 03:20:13;;;;;;;0.90;0.88;;;15.40;99.90;;;;;;4994149;28;20369;-75
2022/08/12 03:22:41;;;;;;;1.20;1.00;;;15.50;99.90;;;;;;4991303;28;20624;-75
2022/08/12 03:25:15;;;;;;;1.52;1.25;;;15.40;99.90;;;;;;4991278;28;20078;-75
2022/08/12 03:27:50;;;;;;;1.23;1.02;;;15.40;99.90;;;;;;4993963;28;20030;-75
2022/08/12 03:30:18;;;;;;;2.53;1.08;;;15.40;99.90;;;;;;4990336;28;20030;-75
2022/08/12 03:32:47;;;;;;;1.55;1.05;;;15.40;99.90;;;;;;4999226;28;20105;-76
2022/08/12 03:35:17;;;;;;;1.83;0.98;;;15.40;99.90;;;;;;4994525;28;20033;-76
2022/08/12 03:37:44;;;;;;;1.65;1.13;;;15.30;99.90;;;;;;4992946;28;20050;-76
2022/08/12 03:41:32;;;;;;;1.27;1.00;;;15.30;99.90;;;;;;4997108;28;20034;-76
2022/08/12 04:02:15;;;;;;;1.83;1.00;;;15.30;99.90;;;;;;4993030;28;20041;-77
2022/08/12 04:04:44;;;;;;;2.33;1.33;;;15.30;99.90;;;;;;4995717;28;20029;-76
2022/08/12 04:07:10;;;;;;;1.38;0.95;;;15.30;99.90;;;;;;5000026;28;20042;-76
2022/08/12 04:09:41;;;;;;;1.70;1.38;;;15.40;99.90;;;;;;4999687;28;20166;-76
2022/08/12 04:14:53;;;;;;;1.20;1.08;;;15.40;99.90;;;;;;4992526;28;20041;-75
2022/08/12 04:17:19;;;;;;;2.67;1.48;;;15.40;99.90;;;;;;4992713;28;20417;-76
2022/08/12 04:19:46;;;;;;;1.02;1.00;;;15.40;99.90;;;;;;4994644;28;20117;-76
2022/08/12 04:22:12;;;;;;;1.10;1.00;;;15.40;99.90;;;;;;4996801;28;20022;-75
2022/08/12 04:24:39;;;;;;;0.93;0.85;;;15.40;99.90;;;;;;4995094;28;20508;-76
2022/08/12 04:27:09;;;;;;;2.78;1.33;;;15.40;99.90;;;;;;4994032;28;20072;-76
2022/08/12 04:29:36;;;;;;;2.13;1.17;;;15.40;99.90;;;;;;4992689;28;20478;-76
2022/08/12 04:32:01;;;;;;;2.95;1.25;;;15.40;99.90;;;;;;4994774;28;20049;-76
2022/08/12 04:34:27;;;;;;;1.75;1.00;;;15.50;99.90;;;;;;4995180;28;20563;-76
2022/08/12 04:36:53;;;;;;;1.70;1.20;;;15.50;99.90;;;;;;4995855;28;20030;-76
2022/08/12 04:39:20;;;;;;;1.83;1.40;;;15.50;99.90;;;;;;4996159;28;20440;-76
2022/08/12 04:41:46;;;;;;;4.68;1.90;;;15.60;99.90;;;;;;4999542;28;20026;-76
2022/08/12 04:44:11;;;;;;;1.30;1.20;;;15.60;99.90;;;;;;4990165;28;20527;-75
2022/08/12 04:46:37;;;;;;;0.93;0.90;;;15.60;99.90;;;;;;4990134;28;20179;-77
2022/08/12 04:49:04;;;;;;;1.40;0.90;;;15.70;99.90;;;;;;4994481;28;20030;-76
2022/08/12 04:51:30;;;;;;;1.55;1.20;;;15.70;99.90;;;;;;4991639;28;20021;-77
2022/08/12 04:53:55;;;;;;;1.52;1.02;;;15.70;99.90;;;;;;4997251;28;20034;-76
2022/08/12 04:56:21;;;;;;;1.30;1.20;;;15.80;99.90;;;;;;4989322;28;20034;-75
2022/08/12 04:58:47;;;;;;;1.85;1.20;;;15.70;99.90;;;;;;4997540;28;20052;-76
2022/08/12 05:01:13;;;;;;;1.67;1.10;;;15.70;99.90;;;;;;4998983;28;20441;-75
2022/08/12 05:03:38;;;;;;;2.08;1.55;;;15.90;99.90;;;;;;4990803;28;20034;-76
2022/08/12 05:06:05;;;;;;;2.53;1.30;;;15.90;99.90;;;;;;4994654;28;20606;-76
2022/08/12 05:08:31;;;;;;;1.40;1.30;;;16.00;99.90;;;;;;4994446;28;20680;-76
2022/08/12 05:10:57;;;;;;;2.35;1.30;;;16.00;99.90;;;;;;5001242;28;20037;-76
2022/08/12 05:13:26;;;;;;;1.77;1.30;;;16.10;99.90;;;;;;4996828;28;20033;-76
2022/08/12 05:15:52;;;;;;;1.35;1.25;;;16.10;99.90;;;;;;4994941;28;20535;-76
2022/08/12 05:18:18;;;;;;;1.10;0.98;;;16.20;99.90;;;;;;4986307;28;20052;-75
2022/08/12 05:20:44;;;;;;;1.52;1.27;;;16.20;99.90;;;;;;4998825;28;20652;-75
2022/08/12 05:23:16;;;;;;;1.67;1.58;;;16.30;99.90;;;;;;4997386;28;20026;-76
2022/08/12 05:25:44;;;;;;;1.35;1.00;;;16.30;99.90;;;;;;4992881;28;20091;-75
2022/08/12 05:28:11;;;;;;;1.50;1.13;;;16.40;99.90;;;;;;4988726;28;20026;-74
2022/08/12 05:30:38;;;;;;;1.45;1.20;;;16.50;99.90;;;;;;4987671;28;20029;-74
2022/08/12 05:33:04;;;;;;;1.60;1.35;;;16.60;99.90;;;;;;4996549;28;20034;-75
2022/08/12 05:35:40;;;;;;;2.65;1.25;;;16.70;99.90;;;;;;4990952;28;20084;-76
2022/08/12 05:41:04;;;;;;;5.85;1.13;;;16.90;99.90;;;;;;4994298;28;20113;-75
2022/08/12 05:43:33;;;;;;;1.77;1.10;;;17.00;99.90;;;;;;4996076;28;20068;-75
2022/08/12 05:45:58;;;;;;;3.05;1.20;;;17.10;99.90;;;;;;5004864;28;20026;-75
2022/08/12 05:48:24;;;;;;;5.50;1.40;;;17.30;99.90;;;;;;4998947;28;20092;-75
2022/08/12 05:50:51;;;;;;;3.15;2.20;;;17.40;99.90;;;;;;4995301;28;20060;-85
2022/08/12 05:53:17;;;;;;;1.55;1.27;;;17.50;99.90;;;;;;4991265;28;20053;-73
2022/08/12 05:55:43;;;;;;;4.25;2.03;;;17.60;99.90;;;;;;4996485;28;20045;-73
2022/08/12 05:58:08;;;;;;;2.95;1.70;;;18.00;99.90;;;;;;4998554;28;20493;-73
2022/08/12 06:00:35;;;;;;;4.60;1.50;;;18.30;99.90;;;;;;4997974;28;20028;-73
2022/08/12 06:03:02;;;;;;;1.25;1.05;;;18.30;99.90;;;;;;4999282;28;20030;-73
2022/08/12 06:05:29;;;;;;;1.77;1.23;;;18.40;99.90;;;;;;4996259;28;20117;-73
2022/08/12 06:07:56;;;;;;;1.80;1.70;;;18.50;99.90;;;;;;5003965;28;20031;-73
2022/08/12 06:10:22;;;;;;;1.20;1.10;;;18.50;99.90;;;;;;4994512;28;20022;-73
2022/08/12 06:12:48;;;;;;;2.35;1.40;;;18.70;99.90;;;;;;4996153;28;20033;-74
2022/08/12 06:15:15;;;;;;;3.42;1.38;;;18.90;99.60;;;;;;5003113;28;20072;-74
2022/08/12 06:17:42;;;;;;;2.75;1.55;;;18.90;98.90;;;;;;5001506;28;20068;-73
2022/08/12 06:20:12;;;;;;;1.63;1.30;;;19.10;97.90;;;;;;5000654;28;20113;-73
2022/08/12 06:22:42;;;;;;;4.93;1.48;;;19.00;97.20;;;;;;4997484;28;20019;-75
2022/08/12 06:25:08;;;;;;;5.05;1.45;;;19.10;96.50;;;;;;4995201;28;20425;-73
2022/08/12 06:27:48;;;;;;;1.52;1.10;;;19.20;96.80;;;;;;4995681;28;20237;-73
2022/08/12 06:30:15;;;;;;;1.73;1.40;;;19.30;96.10;;;;;;4996384;28;20037;-74
2022/08/12 06:32:42;;;;;;;4.72;1.50;;;19.30;96.80;;;;;;4995585;28;20018;-72
2022/08/12 06:35:09;;;;;;;5.45;1.40;;;19.50;96.00;;;;;;4993052;28;20038;-73
2022/08/12 06:37:46;;;;;;;1.73;1.17;;;19.70;95.30;;;;;;4991449;28;20041;-73
2022/08/12 06:40:12;;;;;;;1.50;1.30;;;19.90;94.20;;;;;;4998269;28;20078;-73
2022/08/12 06:42:47;;;;;;;1.35;1.00;;;19.90;93.30;;;;;;5001089;28;20045;-73
2022/08/12 06:45:14;;;;;;;1.25;0.98;;;20.00;93.50;;;;;;4994163;28;20037;-73
2022/08/12 06:47:41;;;;;;;4.35;2.45;;;20.10;93.80;;;;;;4992425;28;20030;-73
2022/08/12 06:50:07;;;;;;;3.05;1.38;;;20.20;92.60;;;;;;4992909;28;21051;-73
2022/08/12 06:52:33;;;;;;;2.08;1.30;;;20.30;91.80;;;;;;4996194;28;20044;-73
2022/08/12 06:54:58;;;;;;;4.72;1.65;;;20.30;91.80;;;;;;4997952;28;20030;-73
2022/08/12 06:57:26;;;;;;;1.58;1.30;;;20.50;91.00;;;;;;4995491;28;20125;-73
2022/08/12 06:59:53;;;;;;;2.03;1.15;;;20.50;90.60;;;;;;4991398;28;20551;-73
2022/08/12 07:02:19;;;;;;;0.80;0.80;;;20.70;89.30;;;;;;4996595;28;20050;-73
2022/08/12 07:04:46;;;;;;;1.13;0.90;;;20.90;89.20;;;;;;4995468;28;20032;-72
2022/08/12 07:07:12;;;;;;;0.80;0.80;;;21.00;85.60;;;;;;4995413;28;20473;-73
2022/08/12 07:09:38;;;;;;;2.28;1.48;;;21.10;86.00;;;;;;4994701;28;20388;-73
2022/08/12 07:12:04;;;;;;;1.50;1.38;;;21.20;86.30;;;;;;4997291;28;20037;-72
2022/08/12 07:14:29;;;;;;;1.20;1.10;;;21.20;84.20;;;;;;4992809;28;22044;-73
2022/08/12 07:17:01;;;;;;;2.08;1.27;;;21.30;83.60;;;;;;4997747;28;20038;-74
2022/08/12 07:19:26;;;;;;;1.33;1.13;;;21.40;82.10;;;;;;4992409;28;20476;-74
2022/08/12 07:21:52;;;;;;;2.10;0.90;;;21.50;83.60;;;;;;4994723;28;20048;-75
2022/08/12 07:24:17;;;;;;;1.45;1.00;;;21.60;83.20;;;;;;4997637;28;20030;-75
2022/08/12 07:26:43;;;;;;;1.67;0.88;;;21.60;82.00;;;;;;4992872;28;20087;-74
2022/08/12 07:29:09;;;;;;;1.27;1.13;;;21.60;82.00;;;;;;4996891;28;20038;-73
2022/08/12 07:31:36;;;;;;;0.80;0.80;;;21.70;81.80;;;;;;4996326;28;20040;-75
2022/08/12 07:34:02;;;;;;;2.03;1.10;;;21.90;79.70;;;;;;4993784;28;20370;-75
2022/08/12 07:36:27;;;;;;;1.10;1.00;;;21.90;79.60;;;;;;4990571;28;20030;-73
2022/08/12 07:38:53;;;;;;;3.60;1.40;;;21.90;79.90;;;;;;4992303;28;20030;-75
2022/08/12 07:41:25;;;;;;;1.23;1.00;;;21.90;78.80;;;;;;4996033;28;20010;-74
2022/08/12 07:43:57;;;;;;;1.52;1.10;;;22.00;78.00;;;;;;4991546;28;20389;-78
2022/08/12 07:46:33;;;;;;;1.27;0.90;;;22.10;77.70;;;;;;4998422;28;20030;-75
2022/08/12 07:49:04;;;;;;;0.98;0.90;;;22.20;77.90;;;;;;4994424;28;20029;-74
2022/08/12 07:51:29;;;;;;;0.60;0.60;;;22.30;75.10;;;;;;4992791;28;20108;-74
2022/08/12 07:53:57;;;;;;;2.38;1.00;;;22.30;76.10;;;;;;4998281;28;20744;-74
2022/08/12 07:56:59;;;;;;;1.20;1.10;;;22.30;75.70;;;;;;4991814;28;20030;-80
2022/08/12 07:59:32;;;;;;;0.70;0.70;;;22.50;73.70;;;;;;4967743;28;20061;-74
2022/08/12 08:01:59;;;;;;;0.82;0.80;;;22.60;76.10;;;;;;4996755;28;20030;-76
2022/08/12 08:07:09;;;;;;;0.98;0.90;;;22.50;74.70;;;;;;4994502;28;20041;-75
2022/08/12 08:09:35;;;;;;;1.05;0.98;;;22.60;73.00;;;;;;4994535;28;20026;-74
2022/08/12 08:14:45;;;;;;;0.85;0.80;;;22.70;72.10;;;;;;4985557;28;20057;-74
2022/08/12 08:17:11;;;;;;;2.15;0.85;;;22.90;69.20;;;;;;4994088;28;20061;-75
2022/08/12 08:19:37;;;;;;;1.15;1.02;;;22.90;70.90;;;;;;4992485;28;20528;-76
2022/08/12 08:22:02;;;;;;;1.33;1.10;;;22.80;71.20;;;;;;4999641;28;20123;-75
2022/08/12 08:24:29;;;;;;;1.48;1.02;;;22.80;72.00;;;;;;4991063;28;20088;-75
2022/08/12 08:26:57;;;;;;;1.05;0.90;;;23.00;69.80;;;;;;4994511;28;20489;-76
2022/08/12 08:29:24;;;;;;;1.75;1.10;;;23.00;70.10;;;;;;4993550;28;20449;-76
2022/08/12 08:31:57;;;;;;;1.00;0.88;;;23.00;70.60;;;;;;4997800;28;20038;-75
2022/08/12 08:34:25;;;;;;;1.42;1.00;;;22.90;71.40;;;;;;4997055;28;20484;-75
2022/08/12 08:36:50;;;;;;;1.17;0.80;;;23.20;69.70;;;;;;4995547;28;20436;-75
2022/08/12 08:39:16;;;;;;;2.20;1.00;;;23.10;70.50;;;;;;4993173;28;20026;-75
2022/08/12 08:44:26;;;;;;;0.80;0.80;;;23.20;70.40;;;;;;4995539;28;20088;-75
2022/08/12 08:46:54;;;;;;;1.02;0.70;;;23.30;71.50;;;;;;4997536;28;20030;-75
2022/08/12 08:49:20;;;;;;;0.73;0.73;;;23.30;70.50;;;;;;4994031;28;20370;-77
2022/08/12 08:51:46;;;;;;;1.77;0.80;;;23.30;69.10;;;;;;4993661;28;20034;-78
2022/08/12 08:54:12;;;;;;;3.28;1.33;;;23.30;69.00;;;;;;4994592;28;20031;-75
2022/08/12 08:56:48;;;;;;;1.00;0.85;;;23.40;68.20;;;;;;4990909;28;20035;-74
2022/08/12 08:59:14;;;;;;;1.38;0.82;;;23.40;67.50;;;;;;4990046;28;20096;-76
2022/08/12 09:01:41;;;;;;;0.70;0.70;;;23.50;66.70;;;;;;4994117;28;20022;-76
2022/08/12 09:04:09;;;;;;;0.65;0.65;;;23.80;65.10;;;;;;4994619;28;20033;-76
2022/08/12 09:06:35;;;;;;;2.08;1.00;;;23.80;64.50;;;;;;4995518;28;20149;-76
2022/08/12 09:09:04;;;;;;;0.68;0.68;;;23.70;65.10;;;;;;4990486;28;20542;-76
2022/08/12 09:14:13;;;;;;;2.03;0.95;;;23.70;65.80;;;;;;4993240;28;20032;-76
2022/08/12 09:16:39;;;;;;;1.15;0.85;;;23.80;64.10;;;;;;4998632;28;20038;-75
2022/08/12 09:19:06;;;;;;;0.77;0.77;;;24.00;63.60;;;;;;4991887;28;20096;-75
2022/08/12 09:21:32;;;;;;;4.97;0.73;;;23.80;64.30;;;;;;4995552;28;20481;-73
2022/08/12 09:23:59;;;;;;;1.65;0.95;;;23.90;63.40;;;;;;4997023;28;20060;-73
2022/08/12 09:26:28;;;;;;;0.80;0.80;;;24.00;62.40;;;;;;5001040;28;20038;-73
2022/08/12 09:28:55;;;;;;;0.45;0.45;;;24.00;61.40;;;;;;4994928;28;20037;-74
2022/08/12 09:31:21;;;;;;;1.63;0.80;;;24.10;60.40;;;;;;5000146;28;20022;-77
2022/08/12 09:33:47;;;;;;;1.23;0.90;;;24.10;61.20;;;;;;4994273;28;20117;-73
2022/08/12 09:36:13;;;;;;;1.35;1.25;;;24.10;61.20;;;;;;4995119;28;20452;-74
2022/08/12 09:38:39;;;;;;;2.92;1.05;;;24.20;60.80;;;;;;4993570;28;20021;-73
2022/08/12 09:41:05;;;;;;;1.33;0.82;;;24.10;60.80;;;;;;4992341;28;20038;-73
2022/08/12 09:46:16;;;;;;;0.90;0.80;;;24.00;60.70;;;;;;4996993;28;20504;-74
2022/08/12 09:48:43;;;;;;;1.17;0.82;;;24.00;60.70;;;;;;4997490;28;20030;-74
2022/08/12 09:51:09;;;;;;;0.85;0.73;;;24.20;61.60;;;;;;5006574;28;20439;-75
2022/08/12 09:53:34;;;;;;;2.33;1.20;;;24.30;59.60;;;;;;5001260;28;20040;-74
2022/08/12 09:56:01;;;;;;;5.90;1.40;;;24.20;59.90;;;;;;5002883;28;20136;-75
2022/08/12 09:58:27;;;;;;;1.27;1.08;;;24.20;59.70;;;;;;5002302;28;20095;-75
2022/08/12 10:01:05;;;;;;;1.73;0.90;;;24.20;59.20;;;;;;5000678;28;20038;-75
2022/08/12 10:03:32;;;;;;;1.55;0.90;;;24.40;59.40;;;;;;5002297;28;20034;-75
2022/08/12 10:05:59;;;;;;;1.08;0.88;;;24.50;60.60;;;;;;5005180;28;20120;-74
2022/08/12 10:08:29;;;;;;;1.02;0.88;;;24.50;58.90;;;;;;5006089;28;20415;-75
2022/08/12 10:13:42;;;;;;;0.90;0.70;;;24.70;60.60;;;;;;5004484;28;20103;-76
2022/08/12 10:16:17;;;;;;;0.57;0.57;;;24.40;59.00;;;;;;5000413;28;20367;-75
2022/08/12 10:18:52;;;;;;;1.10;0.70;;;24.30;59.40;;;;;;4997845;28;21731;-75
2022/08/12 10:21:29;;;;;;;0.60;0.60;;;24.40;59.60;;;;;;5007130;28;20030;-75
2022/08/12 10:23:56;;;;;;;0.90;0.68;;;24.50;59.00;;;;;;5003339;28;20030;-74
2022/08/12 10:31:52;;;;;;;1.42;1.25;;;24.90;57.90;;;;;;4998041;28;20041;-75
2022/08/12 10:34:21;;;;;;;0.82;0.70;;;24.60;58.90;;;;;;5006470;28;20029;-74
2022/08/12 10:36:48;;;;;;;1.17;0.80;;;24.70;58.20;;;;;;5006189;28;20029;-75
2022/08/12 10:39:16;;;;;;;1.65;1.17;;;24.90;59.80;;;;;;5004167;28;20030;-75
2022/08/12 10:44:27;;;;;;;0.60;0.60;;;26.40;57.50;;;;;;5004191;28;20095;-75
2022/08/12 10:46:54;;;;;;;0.65;0.65;;;27.80;50.20;;;;;;5003518;28;20022;-75
2022/08/12 10:49:27;;;;;;;1.42;0.90;;;27.70;51.90;;;;;;5006978;28;20040;-75
2022/08/12 10:51:57;;;;;;;0.70;0.70;;;27.80;51.10;;;;;;5003001;28;20041;-75
2022/08/12 10:54:26;;;;;;;1.17;0.80;;;27.90;50.20;;;;;;5004783;28;20083;-75
2022/08/12 10:56:52;;;;;;;2.92;0.65;;;28.20;50.90;;;;;;5004047;28;20048;-76
2022/08/12 10:59:20;;;;;;;0.88;0.70;;;28.60;50.10;;;;;;4996464;28;20113;-74
2022/08/12 11:01:50;;;;;;;0.63;0.63;;;28.60;50.90;;;;;;5001994;28;20121;-75
2022/08/12 11:04:16;;;;;;;0.93;0.83;;;28.20;51.60;;;;;;5003509;28;20029;-74
2022/08/12 11:06:46;;;;;;;0.70;0.60;;;27.70;50.60;;;;;;5007143;28;20665;-75
2022/08/12 11:09:16;;;;;;;0.80;0.80;;;28.50;48.90;;;;;;5006641;28;20070;-75
2022/08/12 11:11:48;;;;;;;1.55;0.77;;;28.70;52.10;;;;;;4992429;28;20069;-76
2022/08/12 11:14:27;;;;;;;0.60;0.60;;;28.80;50.60;;;;;;5001006;28;20072;-79
2022/08/12 11:16:56;;;;;;;0.70;0.70;;;29.10;47.90;;;;;;4986749;28;20481;-75
2022/08/12 11:19:26;;;;;;;0.80;0.80;;;29.10;50.00;;;;;;5004492;28;20030;-76
2022/08/12 11:21:53;;;;;;;1.55;1.02;;;29.50;47.30;;;;;;5003119;28;20033;-75
2022/08/12 11:24:18;;;;;;;1.23;0.80;;;29.60;48.70;;;;;;5001366;28;20030;-74
2022/08/12 11:26:44;;;;;;;2.67;1.00;;;29.80;49.20;;;;;;5008375;28;20091;-76
2022/08/12 11:29:10;;;;;;;1.23;0.82;;;29.80;46.10;;;;;;4999904;28;20053;-76
2022/08/12 11:31:35;;;;;;;0.98;0.88;;;30.10;48.40;;;;;;5002901;28;20477;-75
2022/08/12 11:34:01;;;;;;;0.70;0.70;;;30.50;46.50;;;;;;5002378;28;20064;-75
2022/08/12 11:36:26;;;;;;;0.70;0.70;;;30.90;45.20;;;;;;4981073;28;20030;-76
2022/08/12 11:38:54;;;;;;;0.80;0.80;;;30.70;45.30;;;;;;4999928;28;20045;-76
2022/08/12 11:41:20;;;;;;;0.80;0.73;;;31.00;45.90;;;;;;4998777;28;20500;-76
2022/08/12 11:43:46;;;;;;;0.77;0.70;;;29.60;48.00;;;;;;4998770;28;20500;-76
2022/08/12 11:46:12;;;;;;;0.60;0.60;;;27.90;49.90;;;;;;5000313;28;20030;-76
2022/08/12 11:48:38;;;;;;;1.15;0.85;;;26.80;53.10;;;;;;5001410;28;20498;-76
2022/08/12 11:51:07;;;;;;;0.70;0.70;;;26.40;54.00;;;;;;4998895;28;20048;-76
2022/08/12 11:53:34;;;;;;;0.82;0.70;;;26.80;54.30;;;;;;5003407;28;20045;-76
2022/08/12 11:56:01;;;;;;;1.10;1.00;;;28.40;49.20;;;;;;5004529;28;20038;-76
2022/08/12 11:58:26;;;;;;;2.75;0.98;;;29.50;48.80;;;;;;5005046;28;20149;-75
2022/08/12 12:00:52;;;;;;;2.17;0.93;;;30.10;46.80;;;;;;4984629;28;20018;-76
2022/08/12 12:03:18;;;;;;;1.30;0.93;;;29.70;47.50;;;;;;5002798;28;20018;-76
2022/08/12 12:05:43;;;;;;;1.52;1.00;;;30.00;47.80;;;;;;5002815;28;20132;-76
2022/08/12 12:08:09;;;;;;;1.13;0.80;;;30.40;47.20;;;;;;5000828;28;20037;-75
2022/08/12 12:10:34;;;;;;;1.67;0.95;;;30.30;47.70;;;;;;4997616;28;20026;-76
2022/08/12 12:13:00;;;;;;;0.75;0.75;;;30.50;46.90;;;;;;5001642;28;20575;-76
2022/08/12 12:15:25;;;;;;;0.95;0.80;;;30.80;45.90;;;;;;5003780;28;20542;-77
2022/08/12 12:17:52;;;;;;;0.80;0.80;;;31.40;45.20;;;;;;5003589;28;20022;-76
2022/08/12 12:20:18;;;;;;;1.10;1.00;;;31.60;47.70;;;;;;5003192;28;20558;-76
2022/08/12 12:22:43;;;;;;;0.70;0.70;;;28.70;48.80;;;;;;5003062;28;20642;-76
2022/08/12 12:25:09;;;;;;;2.03;0.68;;;26.70;53.20;;;;;;5009750;28;20028;-77
2022/08/12 12:27:52;;;;;;;2.95;0.98;;;27.30;52.50;;;;;;5001103;28;20089;-76
2022/08/12 12:30:18;;;;;;;1.27;1.17;;;26.90;52.70;;;;;;5012290;28;20026;-76
2022/08/12 12:32:44;;;;;;;1.85;1.58;;;26.20;54.50;;;;;;5009387;28;20037;-75
2022/08/12 12:35:10;;;;;;;1.20;1.00;;;26.10;55.20;;;;;;5000544;28;20021;-76
2022/08/12 12:37:53;;;;;;;1.70;0.98;;;25.90;56.10;;;;;;5000689;28;20045;-77
2022/08/12 12:40:19;;;;;;;1.00;0.80;;;26.70;54.00;;;;;;4999113;28;20018;-76
2022/08/12 12:42:45;;;;;;;1.00;0.82;;;25.30;56.30;;;;;;5003282;28;20528;-75
2022/08/12 12:45:12;;;;;;;1.08;0.90;;;25.00;57.40;;;;;;5001951;28;20065;-76
2022/08/12 12:48:11;;;;;;;1.10;1.00;;;25.20;57.30;;;;;;5004757;28;20184;-76
2022/08/12 12:50:44;;;;;;;0.70;0.70;;;25.30;57.40;;;;;;5003193;28;20120;-76
2022/08/12 12:53:11;;;;;;;0.95;0.85;;;25.60;56.20;;;;;;5002839;28;20029;-75
2022/08/12 12:55:37;;;;;;;1.70;0.82;;;25.50;57.00;;;;;;5005845;28;20070;-75
2022/08/12 12:58:15;;;;;;;0.80;0.80;;;24.70;58.50;;;;;;5007056;28;20022;-81
2022/08/12 13:00:41;;;;;;;0.80;0.80;;;25.60;57.60;;;;;;5005668;28;20029;-74
2022/08/12 13:03:07;;;;;;;0.80;0.80;;;25.40;57.00;;;;;;5007003;28;20180;-73
2022/08/12 13:05:35;;;;;;;1.65;1.00;;;25.50;56.50;;;;;;5010771;28;20366;-74
2022/08/12 13:08:16;;;;;;;1.20;1.10;;;25.30;57.50;;;;;;5007037;28;20018;-74
2022/08/12 13:10:41;;;;;;;1.00;0.90;;;25.10;57.70;;;;;;5000480;28;20034;-73
2022/08/12 13:13:07;;;;;;;5.30;1.00;;;26.50;55.50;;;;;;5001721;28;20029;-74
2022/08/12 13:15:32;;;;;;;0.70;0.70;;;25.60;56.90;;;;;;5004334;28;20412;-73
2022/08/12 13:18:03;;;;;;;2.83;1.00;;;25.60;57.30;;;;;;5003435;28;20029;-74
2022/08/12 13:20:30;;;;;;;0.80;0.80;;;25.40;57.70;;;;;;5007679;28;20052;-74
2022/08/12 13:22:56;;;;;;;0.80;0.73;;;25.70;56.90;;;;;;5006279;28;20042;-74
2022/08/12 13:25:23;;;;;;;0.70;0.70;;;25.30;57.70;;;;;;5002461;28;20025;-74
2022/08/12 13:27:49;;;;;;;1.05;0.90;;;25.10;58.20;;;;;;5000873;28;20068;-74
2022/08/12 13:30:17;;;;;;;1.15;0.98;;;25.50;57.90;;;;;;5003220;28;20030;-73
2022/08/12 13:32:45;;;;;;;1.10;1.00;;;25.30;57.10;;;;;;5002728;28;20069;-73
2022/08/12 13:35:15;;;;;;;0.77;0.77;;;25.20;58.00;;;;;;5006023;28;20396;-74
2022/08/12 13:37:52;;;;;;;1.10;1.00;;;25.30;57.80;;;;;;4998077;28;20105;-80
2022/08/12 13:40:57;;;;;;;0.90;0.90;;;25.10;57.60;;;;;;5005735;28;20030;-71
2022/08/12 13:43:23;;;;;;;1.52;1.08;;;24.60;58.50;;;;;;5012185;28;20484;-73
2022/08/12 13:45:50;;;;;;;1.52;1.13;;;24.40;59.80;;;;;;5005712;28;20033;-74
2022/08/12 13:48:16;;;;;;;1.10;1.00;;;24.70;57.90;;;;;;5004652;28;20396;-73
2022/08/12 13:50:42;;;;;;;1.38;0.90;;;24.80;59.00;;;;;;5008978;28;20038;-73
2022/08/12 13:53:13;;;;;;;1.50;1.08;;;25.40;58.40;;;;;;5004594;28;20037;-74
2022/08/12 13:55:48;;;;;;;1.20;1.10;;;27.20;54.50;;;;;;5002451;28;20049;-74
2022/08/12 13:58:15;;;;;;;1.67;0.77;;;26.60;54.80;;;;;;5002217;28;20030;-77
2022/08/12 14:00:44;;;;;;;0.80;0.80;;;26.50;56.60;;;;;;5002968;28;20034;-74
2022/08/12 14:03:13;;;;;;;1.00;0.90;;;25.20;57.90;;;;;;5002864;28;20038;-74
2022/08/12 14:05:39;;;;;;;0.80;0.80;;;25.80;57.00;;;;;;5012968;28;20034;-73
2022/08/12 14:08:06;;;;;;;8.00;1.33;;;25.10;58.10;;;;;;5010712;28;20073;-77
2022/08/12 14:10:38;;;;;;;1.42;1.02;;;25.50;57.30;;;;;;5009836;28;20018;-75
2022/08/12 14:13:15;;;;;;;1.20;0.95;;;26.00;56.40;;;;;;5006696;28;20034;-74
2022/08/12 14:15:47;;;;;;;1.20;1.10;;;25.90;56.90;;;;;;5000615;28;20038;-75
2022/08/12 14:18:27;;;;;;;1.83;0.90;;;25.40;57.50;;;;;;5003255;28;20072;-74
2022/08/12 14:21:01;;;;;;;2.97;0.85;;;25.40;57.60;;;;;;5006353;28;20023;-73
2022/08/12 14:23:28;;;;;;;1.58;1.00;;;25.00;58.50;;;;;;5005891;28;20041;-74
2022/08/12 14:25:58;;;;;;;1.58;1.08;;;24.90;59.30;;;;;;5004356;28;20026;-76
2022/08/12 14:28:24;;;;;;;1.10;0.98;;;24.50;60.60;;;;;;5001464;28;20101;-75
2022/08/12 14:30:59;;;;;;;1.98;1.25;;;24.30;61.30;;;;;;4998117;28;20021;-76
2022/08/12 14:33:37;;;;;;;0.70;0.70;;;24.30;60.70;;;;;;5001729;28;20061;-79
2022/08/12 14:36:08;;;;;;;1.67;1.15;;;24.50;60.50;;;;;;5000994;28;20025;-75
2022/08/12 14:38:39;;;;;;;2.28;1.00;;;24.50;60.50;;;;;;5000590;28;20057;-75
2022/08/12 14:41:07;;;;;;;1.10;0.88;;;24.10;61.70;;;;;;5000642;28;20125;-76
2022/08/12 14:43:36;;;;;;;1.73;1.15;;;24.10;61.20;;;;;;4999776;28;20034;-75
2022/08/12 14:46:03;;;;;;;0.88;0.82;;;24.20;59.70;;;;;;5006595;28;20095;-76
2022/08/12 14:48:29;;;;;;;1.00;0.93;;;24.30;60.40;;;;;;5006068;28;20617;-75